createdAt,value
2019-04-20T00:00:59.815Z,12.31
2019-04-20T00:03:01.329Z,12.26
2019-04-20T00:04:51.654Z,12.24
2019-04-20T00:06:57.614Z,12.20
2019-04-20T00:09:20.988Z,12.18
2019-04-20T00:11:18.401Z,12.14
2019-04-20T00:13:30.735Z,12.14
2019-04-20T00:14:50.277Z,12.09
2019-04-20T00:16:50.856Z,12.03
2019-04-20T00:19:03.935Z,11.97
2019-04-20T00:21:14.700Z,11.86
2019-04-20T00:22:57.883Z,11.75
2019-04-20T00:25:15.766Z,11.62
2019-04-20T00:27:42.583Z,11.49
2019-04-20T00:29:29.103Z,11.31
2019-04-20T00:31:29.491Z,11.18
2019-04-20T00:33:30.749Z,11.14
2019-04-20T00:34:54.149Z,11.06
2019-04-20T00:36:51.837Z,11.02
2019-04-20T00:39:07.519Z,10.89
2019-04-20T00:41:12.361Z,10.82
2019-04-20T00:43:01.185Z,10.65
2019-04-20T00:45:21.676Z,10.58
2019-04-20T00:47:33.974Z,10.48
2019-04-20T00:49:34.411Z,10.47
2019-04-20T00:51:30.383Z,10.47
2019-04-20T00:53:29.063Z,10.54
2019-04-20T00:54:49.798Z,10.54
2019-04-20T00:56:50.173Z,10.39
2019-04-20T00:59:31.449Z,10.30
2019-04-20T01:01:35.701Z,10.29
2019-04-20T01:03:27.533Z,10.24
2019-04-20T01:05:39.315Z,10.20
2019-04-20T01:07:29.651Z,10.09
2019-04-20T01:08:51.147Z,10.02
2019-04-20T01:11:01.335Z,9.92
2019-04-20T01:13:17.272Z,9.84
2019-04-20T01:15:11.076Z,9.72
2019-04-20T01:17:13.302Z,9.60
2019-04-20T01:18:50.295Z,9.50
2019-04-20T01:20:51.662Z,9.43
2019-04-20T01:23:17.164Z,9.42
2019-04-20T01:24:57.740Z,9.29
2019-04-20T01:27:06.617Z,9.23
2019-04-20T01:29:27.880Z,9.16
2019-04-20T01:31:29.190Z,9.13
2019-04-20T01:33:31.555Z,9.04
2019-04-20T01:35:35.432Z,8.96
2019-04-20T01:37:29.125Z,8.89
2019-04-20T01:39:28.235Z,8.78
2019-04-20T01:40:50.864Z,8.73
2019-04-20T01:42:51.482Z,8.71
2019-04-20T01:44:59.024Z,8.69
2019-04-20T01:47:06.610Z,8.63
2019-04-20T01:48:50.910Z,8.58
2019-04-20T01:51:25.413Z,8.53
2019-04-20T01:53:26.788Z,8.48
2019-04-20T01:55:32.761Z,8.47
2019-04-20T01:57:25.503Z,8.43
2019-04-20T01:59:31.438Z,8.41
2019-04-20T02:01:00.719Z,8.41
2019-04-20T02:03:07.888Z,8.38
2019-04-20T02:05:12.626Z,8.37
2019-04-20T02:07:06.431Z,8.33
2019-04-20T02:09:19.022Z,8.29
2019-04-20T02:11:05.456Z,8.28
2019-04-20T02:13:07.571Z,8.27
2019-04-20T02:15:07.979Z,8.22
2019-04-20T02:17:27.809Z,8.22
2019-04-20T02:19:30.012Z,8.22
2019-04-20T02:21:23.165Z,8.13
2019-04-20T02:23:30.400Z,8.11
2019-04-20T02:24:51.304Z,8.08
2019-04-20T02:26:53.689Z,8.08
2019-04-20T02:29:38.831Z,8.06
2019-04-20T02:31:54.837Z,8.06
2019-04-20T02:33:41.795Z,8.02
2019-04-20T02:35:52.591Z,8.03
2019-04-20T02:38:02.651Z,7.98
2019-04-20T02:39:50.677Z,7.87
2019-04-20T02:41:49.520Z,7.84
2019-04-20T02:44:05.743Z,7.83
2019-04-20T02:45:57.180Z,7.79
2019-04-20T02:47:45.298Z,7.78
2019-04-20T02:49:50.603Z,7.77
2019-04-20T02:54:00.165Z,7.62
2019-04-20T02:55:55.167Z,7.59
2019-04-20T02:57:52.589Z,7.57
2019-04-20T02:59:58.574Z,7.58
2019-04-20T03:01:35.666Z,7.56
2019-04-20T03:03:27.528Z,7.52
2019-04-20T03:05:29.196Z,7.50
2019-04-20T03:07:33.853Z,7.38
2019-04-20T03:09:39.537Z,7.38
2019-04-20T03:11:46.168Z,7.30
2019-04-20T03:13:41.141Z,7.30
2019-04-20T03:15:32.623Z,7.27
2019-04-20T03:17:38.287Z,7.20
2019-04-20T03:19:26.829Z,7.16
2019-04-20T03:21:43.021Z,7.08
2019-04-20T03:23:35.144Z,7.06
2019-04-20T03:25:42.541Z,7.02
2019-04-20T03:27:32.868Z,6.98
2019-04-20T03:29:39.600Z,6.96
2019-04-20T03:32:03.007Z,6.95
2019-04-20T03:35:40.201Z,6.88
2019-04-20T03:37:42.024Z,6.85
2019-04-20T03:39:35.834Z,6.86
2019-04-20T03:41:25.866Z,6.88
2019-04-20T03:42:50.983Z,6.81
2019-04-20T03:45:14.125Z,6.77
2019-04-20T03:47:12.126Z,6.70
2019-04-20T03:51:39.594Z,6.54
2019-04-20T03:53:39.150Z,6.50
2019-04-20T03:57:40.287Z,6.44
2019-04-20T03:59:41.115Z,6.41
2019-04-20T04:02:01.440Z,6.35
2019-04-20T04:03:46.848Z,6.29
2019-04-20T04:05:35.112Z,6.27
2019-04-20T04:07:15.243Z,6.22
2019-04-20T04:09:32.388Z,6.20
2019-04-20T04:11:25.914Z,6.20
2019-04-20T04:12:54.841Z,6.17
2019-04-20T04:14:51.660Z,6.16
2019-04-20T04:17:03.902Z,6.16
2019-04-20T04:19:23.024Z,6.12
2019-04-20T04:21:13.274Z,6.12
2019-04-20T04:23:36.458Z,6.10
2019-04-20T04:25:28.424Z,6.08
2019-04-20T04:27:40.018Z,6.05
2019-04-20T04:29:41.739Z,6.05
2019-04-20T04:31:36.037Z,5.99
2019-04-20T04:33:51.534Z,6.01
2019-04-20T04:35:29.594Z,6.04
2019-04-20T04:37:36.203Z,6.05
2019-04-20T04:39:30.553Z,6.02
2019-04-20T04:41:35.989Z,5.98
2019-04-20T04:43:39.629Z,5.97
2019-04-20T04:45:13.914Z,5.99
2019-04-20T04:47:10.386Z,6.00
2019-04-20T04:49:18.212Z,6.00
2019-04-20T04:51:17.416Z,6.02
2019-04-20T04:53:29.713Z,6.08
2019-04-20T04:55:29.380Z,6.12
2019-04-20T04:56:50.701Z,6.12
2019-04-20T05:00:56.828Z,6.29
2019-04-20T05:03:26.564Z,6.35
2019-04-20T05:05:35.425Z,6.43
2019-04-20T05:07:34.161Z,6.43
2019-04-20T05:09:11.622Z,6.59
2019-04-20T05:10:50.281Z,6.70
2019-04-20T05:12:54.931Z,6.77
2019-04-20T05:15:32.046Z,6.87
2019-04-20T05:17:39.130Z,6.87
2019-04-20T05:19:40.735Z,7.04
2019-04-20T05:21:29.691Z,7.11
2019-04-20T05:23:27.722Z,7.15
2019-04-20T05:25:30.762Z,7.24
2019-04-20T05:27:38.946Z,7.39
2019-04-20T05:29:20.355Z,7.46
2019-04-20T05:31:08.330Z,7.63
2019-04-20T05:33:27.426Z,7.82
2019-04-20T05:35:35.107Z,7.87
2019-04-20T05:39:32.195Z,8.2
2019-04-20T05:41:30.842Z,8.2
2019-04-20T05:45:28.205Z,8.4
2019-04-20T05:47:38.417Z,8.4
2019-04-20T05:49:29.537Z,8.4
2019-04-20T05:51:39.374Z,8.6
2019-04-20T05:53:38.303Z,8.7
2019-04-20T05:55:38.338Z,8.8
2019-04-20T05:57:34.734Z,8.9
2019-04-20T05:59:40.766Z,9.0
2019-04-20T06:01:37.787Z,9.0
2019-04-20T06:03:36.639Z,9.1
2019-04-20T06:05:44.751Z,9.2
2019-04-20T06:07:35.607Z,9.3
2019-04-20T06:09:33.330Z,9.5
2019-04-20T06:13:27.449Z,9.6
2019-04-20T06:15:38.138Z,9.7
2019-04-20T06:17:37.154Z,9.7
2019-04-20T06:19:39.081Z,9.9
2019-04-20T06:21:40.999Z,10.0
2019-04-20T06:23:44.334Z,10.1
2019-04-20T06:25:43.642Z,10.3
2019-04-20T06:29:40.694Z,10.4
2019-04-20T06:31:40.542Z,10.6
2019-04-20T06:33:38.416Z,10.6
2019-04-20T06:36:00.468Z,10.8
2019-04-20T06:37:43.032Z,11.0
2019-04-20T06:39:36.896Z,11.0
2019-04-20T06:43:45.643Z,11.2
2019-04-20T06:45:43.645Z,11.4
2019-04-20T06:47:38.669Z,11.4
2019-04-20T06:49:35.016Z,11.4
2019-04-20T06:51:41.659Z,11.6
2019-04-20T06:53:43.272Z,11.7
2019-04-20T06:57:39.594Z,11.8
2019-04-20T06:59:42.817Z,12.0
2019-04-20T07:01:48.265Z,12.2
2019-04-20T07:03:51.135Z,12.3
2019-04-20T07:05:30.062Z,12.5
2019-04-20T07:07:43.020Z,12.5
2019-04-20T07:11:33.882Z,12.7
2019-04-20T07:13:30.742Z,12.7
2019-04-20T07:15:28.370Z,12.9
2019-04-20T07:17:45.171Z,13.0
2019-04-20T07:19:39.780Z,13.1
2019-04-20T07:21:51.665Z,13.3
2019-04-20T07:23:40.329Z,13.3
2019-04-20T07:25:42.078Z,13.4
2019-04-20T07:27:34.824Z,13.5
2019-04-20T07:29:40.388Z,13.7
2019-04-20T07:31:39.216Z,13.8
2019-04-20T07:33:39.137Z,13.8
2019-04-20T07:35:39.864Z,13.9
2019-04-20T07:37:56.710Z,14.1
2019-04-20T07:39:32.590Z,14.2
2019-04-20T07:41:41.753Z,14.3
2019-04-20T07:43:52.609Z,14.3
2019-04-20T07:45:29.414Z,14.4
2019-04-20T07:47:40.194Z,14.6
2019-04-20T07:49:40.092Z,14.7
2019-04-20T07:51:22.973Z,14.8
2019-04-20T07:53:32.891Z,14.8
2019-04-20T07:55:43.763Z,15.0
2019-04-20T07:57:37.336Z,15.2
2019-04-20T07:59:27.031Z,15.3
2019-04-20T08:01:36.017Z,15.4
2019-04-20T08:03:32.907Z,15.6
2019-04-20T08:05:33.239Z,15.6
2019-04-20T08:07:09.443Z,15.7
2019-04-20T08:09:28.699Z,15.9
2019-04-20T08:11:37.793Z,16.0
2019-04-20T08:13:45.242Z,16.2
2019-04-20T08:19:39.568Z,16.4
2019-04-20T08:21:34.798Z,16.5
2019-04-20T08:23:38.454Z,16.6
2019-04-20T08:25:30.262Z,16.6
2019-04-20T08:27:09.834Z,16.9
2019-04-20T08:29:26.554Z,16.9
2019-04-20T08:31:32.145Z,16.9
2019-04-20T08:33:39.549Z,17.0
2019-04-20T08:35:38.764Z,17.2
2019-04-20T08:37:30.906Z,17.3
2019-04-20T08:39:44.615Z,17.4
2019-04-20T08:41:34.271Z,17.4
2019-04-20T08:43:46.646Z,17.4
2019-04-20T08:45:41.386Z,17.6
2019-04-20T08:47:44.096Z,17.7
2019-04-20T08:49:40.853Z,17.7
2019-04-20T08:51:49.284Z,17.8
2019-04-20T08:53:30.548Z,17.8
2019-04-20T08:55:33.018Z,17.9
2019-04-20T08:57:04.982Z,18.0
2019-04-20T08:58:51.038Z,18.0
2019-04-20T09:01:10.262Z,18.0
2019-04-20T09:03:25.308Z,18.1
2019-04-20T09:05:28.520Z,18.2
2019-04-20T09:07:23.092Z,18.2
2019-04-20T09:11:27.917Z,18.3
2019-04-20T09:13:29.870Z,18.4
2019-04-20T09:14:51.083Z,18.5
2019-04-20T09:17:12.639Z,18.6
2019-04-20T09:19:14.791Z,18.6
2019-04-20T09:21:28.442Z,18.6
2019-04-20T09:23:36.156Z,18.7
2019-04-20T09:25:48.270Z,18.7
2019-04-20T09:27:28.896Z,18.8
2019-04-20T09:35:36.968Z,19.0
2019-04-20T09:37:36.681Z,19.0
2019-04-20T09:39:30.248Z,19.1
2019-04-20T09:41:39.336Z,19.1
2019-04-20T09:42:49.979Z,19.2
2019-04-20T09:45:04.851Z,19.2
2019-04-20T09:47:05.016Z,19.2
2019-04-20T09:49:19.928Z,19.3
2019-04-20T09:51:39.647Z,19.4
2019-04-20T09:53:33.386Z,19.4
2019-04-20T09:55:31.060Z,19.5
2019-04-20T09:57:37.727Z,19.5
2019-04-20T09:59:36.979Z,19.5
2019-04-20T10:01:30.819Z,19.6
2019-04-20T10:02:50.828Z,19.6
2019-04-20T10:04:51.757Z,19.7
2019-04-20T10:06:50.001Z,19.7
2019-04-20T10:09:04.814Z,19.7
2019-04-20T10:10:55.759Z,19.8
2019-04-20T10:12:50.390Z,19.8
2019-04-20T10:14:51.243Z,19.8
2019-04-20T10:16:52.116Z,19.8
2019-04-20T10:18:56.987Z,19.8
2019-04-20T10:20:50.069Z,19.8
2019-04-20T10:22:51.116Z,20.0
2019-04-20T10:24:57.111Z,20.0
2019-04-20T10:26:50.824Z,20.0
2019-04-20T10:28:50.069Z,20.0
2019-04-20T10:30:50.730Z,20.0
2019-04-20T10:32:57.360Z,20.1
2019-04-20T10:34:50.929Z,20.1
2019-04-20T10:36:51.697Z,20.2
2019-04-20T10:38:50.975Z,20.2
2019-04-20T10:41:27.637Z,20.2
2019-04-20T10:42:50.445Z,20.2
2019-04-20T10:45:00.989Z,20.3
2019-04-20T10:46:51.067Z,20.3
2019-04-20T10:49:03.790Z,20.4
2019-04-20T10:50:50.312Z,20.4
2019-04-20T10:52:50.398Z,20.4
2019-04-20T10:54:50.686Z,20.4
2019-04-20T10:56:50.097Z,20.4
2019-04-20T10:58:50.132Z,20.4
2019-04-20T11:00:53.662Z,20.5
2019-04-20T11:02:52.707Z,20.5
2019-04-20T11:04:50.933Z,20.5
2019-04-20T11:06:50.659Z,20.6
2019-04-20T11:08:51.027Z,20.6
2019-04-20T11:11:23.591Z,20.6
2019-04-20T11:12:50.925Z,20.6
2019-04-20T11:14:50.522Z,20.7
2019-04-20T11:16:51.129Z,20.7
2019-04-20T11:18:51.546Z,20.8
2019-04-20T11:20:51.406Z,20.8
2019-04-20T11:22:50.858Z,20.8
2019-04-20T11:24:50.541Z,20.8
2019-04-20T11:26:50.138Z,20.8
2019-04-20T11:28:50.686Z,20.9
2019-04-20T11:30:50.427Z,20.9
2019-04-20T11:32:52.121Z,20.9
2019-04-20T11:34:51.568Z,20.9
2019-04-20T11:36:51.145Z,21.0
2019-04-20T11:38:51.414Z,21.0
2019-04-20T11:41:25.037Z,21.0
2019-04-20T11:42:50.286Z,21.0
2019-04-20T11:44:51.100Z,21.0
2019-04-20T11:46:50.627Z,21.0
2019-04-20T11:48:49.891Z,21.0
2019-04-20T11:50:49.955Z,21.0
2019-04-20T11:52:53.153Z,21.1
2019-04-20T11:54:50.799Z,21.1
2019-04-20T11:56:51.474Z,21.1
2019-04-20T11:58:51.394Z,21.2
2019-04-20T12:01:18.663Z,21.2
2019-04-20T12:03:27.863Z,21.2
2019-04-20T12:05:44.361Z,21.3
2019-04-20T12:06:51.128Z,21.3
2019-04-20T12:08:50.425Z,21.3
2019-04-20T12:11:40.249Z,21.3
2019-04-20T12:12:57.785Z,21.3
2019-04-20T12:14:50.992Z,21.4
2019-04-20T12:16:50.487Z,21.4
2019-04-20T12:18:50.869Z,21.4
2019-04-20T12:20:50.924Z,21.5
2019-04-20T12:22:50.937Z,21.5
2019-04-20T12:24:50.467Z,21.5
2019-04-20T12:26:51.524Z,21.6
2019-04-20T12:28:52.055Z,21.6
2019-04-20T12:31:15.142Z,21.6
2019-04-20T12:33:05.906Z,21.7
2019-04-20T12:34:50.275Z,21.7
2019-04-20T12:36:51.640Z,21.8
2019-04-20T12:38:53.214Z,21.8
2019-04-20T12:40:50.831Z,21.8
2019-04-20T12:42:51.376Z,21.8
2019-04-20T12:44:50.550Z,21.8
2019-04-20T12:46:52.368Z,21.9
2019-04-20T12:48:51.928Z,21.9
2019-04-20T12:50:50.403Z,21.9
2019-04-20T12:52:50.812Z,21.9
2019-04-20T12:54:50.932Z,22.0
2019-04-20T12:56:51.187Z,22.0
2019-04-20T12:58:52.016Z,22.0
2019-04-20T13:00:52.607Z,22.1
2019-04-20T13:02:51.968Z,22.1
2019-04-20T13:04:51.626Z,22.2
2019-04-20T13:06:55.735Z,22.2
2019-04-20T13:09:05.824Z,22.2
2019-04-20T13:10:51.199Z,22.2
2019-04-20T13:12:50.754Z,22.3
2019-04-20T13:14:51.138Z,22.3
2019-04-20T13:16:57.061Z,22.3
2019-04-20T13:18:52.746Z,22.3
2019-04-20T13:21:02.965Z,22.4
2019-04-20T13:22:51.396Z,22.4
2019-04-20T13:24:50.116Z,22.4
2019-04-20T13:26:51.432Z,22.5
2019-04-20T13:28:52.831Z,22.5
2019-04-20T13:30:50.599Z,22.5
2019-04-20T13:32:50.349Z,22.5
2019-04-20T13:34:51.803Z,22.5
2019-04-20T13:36:50.945Z,22.5
2019-04-20T13:38:52.360Z,22.5
2019-04-20T13:40:51.924Z,22.5
2019-04-20T13:42:50.337Z,22.6
2019-04-20T13:44:51.323Z,22.5
2019-04-20T13:46:52.557Z,22.5
2019-04-20T13:48:51.554Z,22.6
2019-04-20T13:50:50.313Z,22.6
2019-04-20T13:52:53.088Z,22.6
2019-04-20T13:54:52.626Z,22.6
2019-04-20T13:56:52.234Z,22.6
2019-04-20T13:58:52.237Z,22.6
2019-04-20T14:00:59.126Z,22.6
2019-04-20T14:02:51.452Z,22.7
2019-04-20T14:04:52.448Z,22.7
2019-04-20T14:06:51.622Z,22.7
2019-04-20T14:08:49.928Z,22.8
2019-04-20T14:10:51.437Z,22.8
2019-04-20T14:13:23.898Z,22.8
2019-04-20T14:14:51.441Z,22.8
2019-04-20T14:16:50.962Z,22.8
2019-04-20T14:18:51.543Z,22.8
2019-04-20T14:20:52.293Z,22.8
2019-04-20T14:22:52.958Z,22.8
2019-04-20T14:24:51.539Z,22.8
2019-04-20T14:26:51.272Z,22.8
2019-04-20T14:28:51.512Z,22.8
2019-04-20T14:30:52.298Z,22.9
2019-04-20T14:32:50.971Z,22.9
2019-04-20T14:34:53.110Z,22.9
2019-04-20T14:36:51.375Z,23.0
2019-04-20T14:38:50.405Z,23.0
2019-04-20T14:40:50.827Z,23.0
2019-04-20T14:43:01.787Z,23.0
2019-04-20T14:44:51.977Z,23.0
2019-04-20T14:46:51.943Z,23.1
2019-04-20T14:48:50.085Z,23.1
2019-04-20T14:50:51.556Z,23.1
2019-04-20T14:52:51.766Z,23.2
2019-04-20T14:54:50.258Z,23.1
2019-04-20T14:56:52.151Z,23.1
2019-04-20T14:58:51.911Z,23.2
2019-04-20T15:00:56.775Z,23.2
2019-04-20T15:02:50.447Z,23.2
2019-04-20T15:04:51.026Z,23.2
2019-04-20T15:06:51.051Z,23.2
2019-04-20T15:08:50.920Z,23.2
2019-04-20T15:10:52.556Z,23.2
2019-04-20T15:13:09.635Z,23.2
2019-04-20T15:14:50.878Z,23.2
2019-04-20T15:16:51.345Z,23.2
2019-04-20T15:18:59.575Z,23.2
2019-04-20T15:20:51.717Z,23.2
2019-04-20T15:22:51.854Z,23.3
2019-04-20T15:24:51.372Z,23.3
2019-04-20T15:26:50.094Z,23.3
2019-04-20T15:28:50.928Z,23.3
2019-04-20T15:30:52.277Z,23.3
2019-04-20T15:32:52.946Z,23.2
2019-04-20T15:34:51.372Z,23.2
2019-04-20T15:36:52.321Z,23.2
2019-04-20T15:38:51.793Z,23.2
2019-04-20T15:40:51.534Z,23.2
2019-04-20T15:43:27.737Z,23.2
2019-04-20T15:44:51.619Z,23.2
2019-04-20T15:46:51.508Z,23.2
2019-04-20T15:48:52.473Z,23.2
2019-04-20T15:50:52.336Z,23.2
2019-04-20T15:53:04.049Z,23.2
2019-04-20T15:54:52.046Z,23.2
2019-04-20T15:57:25.625Z,23.2
2019-04-20T15:58:52.593Z,23.1
2019-04-20T16:00:56.718Z,23.2
2019-04-20T16:02:51.524Z,23.2
2019-04-20T16:04:54.606Z,23.1
2019-04-20T16:06:51.022Z,23.1
2019-04-20T16:08:52.358Z,23.1
2019-04-20T16:10:51.412Z,23.1
2019-04-20T16:13:37.810Z,23.1
2019-04-20T16:14:51.532Z,23.1
2019-04-20T16:16:52.476Z,23.1
2019-04-20T16:18:51.032Z,23.0
2019-04-20T16:21:19.829Z,23.0
2019-04-20T16:22:50.626Z,23.0
2019-04-20T16:24:49.759Z,23.0
2019-04-20T16:26:51.649Z,23.0
2019-04-20T16:28:50.517Z,23.0
2019-04-20T16:30:51.980Z,23.0
2019-04-20T16:32:50.573Z,23.0
2019-04-20T16:34:50.983Z,23.0
2019-04-20T16:36:59.860Z,23.0
2019-04-20T16:38:51.385Z,23.0
2019-04-20T16:40:50.749Z,23.0
2019-04-20T16:42:50.596Z,22.9
2019-04-20T16:44:51.687Z,22.9
2019-04-20T16:46:50.501Z,22.8
2019-04-20T16:48:49.698Z,22.8
2019-04-20T16:50:51.237Z,22.7
2019-04-20T16:52:51.181Z,22.7
2019-04-20T16:54:50.481Z,22.6
2019-04-20T16:56:51.037Z,22.6
2019-04-20T16:59:11.653Z,22.5
2019-04-20T17:00:51.976Z,22.5
2019-04-20T17:02:50.409Z,22.5
2019-04-20T17:04:56.703Z,22.4
2019-04-20T17:06:50.118Z,22.36
2019-04-20T17:08:51.657Z,22.30
2019-04-20T17:10:49.771Z,22.17
2019-04-20T17:12:49.860Z,22.03
2019-04-20T17:14:52.015Z,21.92
2019-04-20T17:16:51.515Z,21.84
2019-04-20T17:18:52.500Z,21.84
2019-04-20T17:20:51.648Z,21.71
2019-04-20T17:22:51.110Z,21.68
2019-04-20T17:24:51.865Z,21.58
2019-04-20T17:26:51.042Z,21.48
2019-04-20T17:28:55.851Z,21.34
2019-04-20T17:30:52.743Z,21.27
2019-04-20T17:32:51.620Z,21.18
2019-04-20T17:35:30.548Z,21.09
2019-04-20T17:36:50.909Z,21.01
2019-04-20T17:39:10.045Z,20.95
2019-04-20T17:41:39.829Z,20.87
2019-04-20T17:43:26.073Z,20.77
2019-04-20T17:45:28.130Z,20.70
2019-04-20T17:47:30.016Z,20.63
2019-04-20T17:49:33.964Z,20.56
2019-04-20T17:51:38.498Z,20.40
2019-04-20T17:53:29.195Z,20.30
2019-04-20T17:54:51.438Z,20.14
2019-04-20T17:56:49.931Z,20.06
2019-04-20T17:58:50.561Z,19.87
2019-04-20T18:01:01.601Z,19.73
2019-04-20T18:03:57.393Z,19.59
2019-04-20T18:05:38.693Z,19.43
2019-04-20T18:09:44.424Z,19.17
2019-04-20T18:11:21.788Z,19.04
2019-04-20T18:13:18.412Z,18.89
2019-04-20T18:15:35.737Z,18.89
2019-04-20T18:17:31.869Z,18.58
2019-04-20T18:19:19.639Z,18.46
2019-04-20T18:20:50.853Z,18.22
2019-04-20T18:23:00.168Z,18.06
2019-04-20T18:25:50.444Z,17.92
2019-04-20T18:27:36.988Z,17.76
2019-04-20T18:29:36.653Z,17.63
2019-04-20T18:31:09.030Z,17.51
2019-04-20T18:32:51.277Z,17.33
2019-04-20T18:35:07.871Z,17.10
2019-04-20T18:36:54.761Z,16.98
2019-04-20T18:39:13.592Z,16.80
2019-04-20T18:41:30.652Z,16.73
2019-04-20T18:43:20.410Z,16.73
2019-04-20T18:45:29.444Z,16.46
2019-04-20T18:47:32.902Z,16.32
2019-04-20T18:49:34.902Z,16.24
2019-04-20T18:50:54.885Z,16.07
2019-04-20T18:52:51.400Z,15.99
2019-04-20T18:54:57.211Z,15.86
2019-04-20T18:56:58.356Z,15.73
2019-04-20T18:58:51.399Z,15.68
2019-04-20T19:00:56.881Z,15.52
2019-04-20T19:03:15.014Z,15.48
2019-04-20T19:04:50.434Z,15.35
2019-04-20T19:06:52.260Z,15.35
2019-04-20T19:08:57.099Z,15.15
2019-04-20T19:11:16.442Z,15.10
2019-04-20T19:13:09.524Z,15.03
2019-04-20T19:15:30.278Z,15.07
2019-04-20T19:17:26.363Z,15.04
2019-04-20T19:19:24.136Z,14.96
2019-04-20T19:20:51.123Z,14.89
2019-04-20T19:22:50.402Z,14.87
2019-04-20T19:24:51.915Z,14.82
2019-04-20T19:27:11.862Z,14.77
2019-04-20T19:29:13.910Z,14.72
2019-04-20T19:31:37.745Z,14.71
2019-04-20T19:33:27.313Z,14.73
2019-04-20T19:35:33.402Z,14.69
2019-04-20T19:37:24.142Z,14.66
2019-04-20T19:39:29.413Z,14.62
2019-04-20T19:41:31.787Z,14.61
2019-04-20T19:43:25.183Z,14.62
2019-04-20T19:45:41.635Z,14.62
2019-04-20T19:47:36.656Z,14.67
2019-04-20T19:49:28.511Z,14.65
2019-04-20T19:51:39.478Z,14.65
2019-04-20T19:53:30.001Z,14.65
2019-04-20T19:55:30.950Z,14.54
2019-04-20T19:59:29.254Z,14.44
2019-04-20T20:00:59.832Z,14.39
2019-04-20T20:02:51.800Z,14.37
2019-04-20T20:05:12.261Z,14.37
2019-04-20T20:07:25.635Z,14.38
2019-04-20T20:09:12.575Z,14.31
2019-04-20T20:10:50.924Z,14.20
2019-04-20T20:13:06.074Z,14.08
2019-04-20T20:14:53.291Z,13.98
2019-04-20T20:17:43.422Z,13.89
2019-04-20T20:19:32.258Z,13.82
2019-04-20T20:21:26.897Z,13.82
2019-04-20T20:23:01.585Z,13.85
2019-04-20T20:24:52.768Z,13.79
2019-04-20T20:27:23.907Z,13.69
2019-04-20T20:29:28.165Z,13.63
2019-04-20T20:31:27.932Z,13.58
2019-04-20T20:33:34.592Z,13.57
2019-04-20T20:35:25.185Z,13.55
2019-04-20T20:37:16.007Z,13.54
2019-04-20T20:39:19.823Z,13.52
2019-04-20T20:41:27.906Z,13.49
2019-04-20T20:43:34.151Z,13.47
2019-04-20T20:45:25.977Z,13.44
2019-04-20T20:47:36.588Z,13.40
2019-04-20T20:49:36.852Z,13.31
2019-04-20T20:51:42.557Z,13.28
2019-04-20T20:53:23.673Z,13.19
2019-04-20T20:55:30.585Z,13.16
2019-04-20T20:57:20.518Z,13.17
2019-04-20T20:59:29.887Z,13.12
2019-04-20T21:01:22.543Z,13.08
2019-04-20T21:03:16.687Z,13.04
2019-04-20T21:04:51.033Z,12.96
2019-04-20T21:06:51.209Z,12.90
2019-04-20T21:09:01.985Z,12.83
2019-04-20T21:10:52.859Z,12.78
2019-04-20T21:13:10.013Z,12.75
2019-04-20T21:14:51.351Z,12.72
2019-04-20T21:17:19.887Z,12.68
2019-04-20T21:19:26.938Z,12.59
2019-04-20T21:21:33.323Z,12.52
2019-04-20T21:23:29.158Z,12.48
2019-04-20T21:24:53.732Z,12.43
2019-04-20T21:26:51.850Z,12.35
2019-04-20T21:28:50.403Z,12.30
2019-04-20T21:31:07.947Z,12.25
2019-04-20T21:33:05.911Z,12.19
2019-04-20T21:35:10.771Z,12.22
2019-04-20T21:37:11.736Z,12.18
2019-04-20T21:38:52.016Z,12.15
2019-04-20T21:41:14.932Z,12.15
2019-04-20T21:43:09.055Z,12.16
2019-04-20T21:45:18.481Z,12.11
2019-04-20T21:46:59.928Z,12.07
2019-04-20T21:49:35.797Z,12.00
2019-04-20T21:51:31.962Z,11.90
2019-04-20T21:53:20.133Z,11.86
2019-04-20T21:54:52.290Z,11.84
2019-04-20T21:57:11.423Z,11.75
2019-04-20T21:59:11.689Z,11.73
2019-04-20T22:01:27.084Z,11.70
2019-04-20T22:03:09.775Z,11.68
2019-04-20T22:04:51.619Z,11.60
2019-04-20T22:06:50.473Z,11.60
2019-04-20T22:09:04.389Z,11.55
2019-04-20T22:10:50.623Z,11.57
2019-04-20T22:13:04.254Z,11.50
2019-04-20T22:15:24.480Z,11.42
2019-04-20T22:17:02.168Z,11.39
2019-04-20T22:19:30.474Z,11.35
2019-04-20T22:21:26.343Z,11.30
2019-04-20T22:23:36.201Z,11.25
2019-04-20T22:25:37.152Z,11.12
2019-04-20T22:27:20.845Z,11.04
2019-04-20T22:28:50.434Z,11.00
2019-04-20T22:30:50.700Z,10.95
2019-04-20T22:32:56.604Z,10.92
2019-04-20T22:35:15.183Z,10.87
2019-04-20T22:36:53.913Z,10.87
2019-04-20T22:39:03.324Z,10.78
2019-04-20T22:40:50.000Z,10.74
2019-04-20T22:43:02.124Z,10.71
2019-04-20T22:45:14.028Z,10.74
2019-04-20T22:46:50.360Z,10.78
2019-04-20T22:49:31.929Z,10.87
2019-04-20T22:51:32.623Z,10.92
2019-04-20T22:53:30.953Z,11.01
2019-04-20T22:55:33.851Z,10.98
2019-04-20T22:57:31.367Z,10.97
2019-04-20T22:59:18.924Z,11.00
2019-04-20T23:01:19.151Z,10.98
2019-04-20T23:02:52.492Z,10.85
2019-04-20T23:04:51.100Z,10.76
2019-04-20T23:06:56.969Z,10.75
2019-04-20T23:09:07.377Z,10.77
2019-04-20T23:10:51.649Z,10.85
2019-04-20T23:13:00.141Z,10.86
2019-04-20T23:14:50.579Z,10.84
2019-04-20T23:16:57.745Z,10.83
2019-04-20T23:18:50.290Z,10.84
2019-04-20T23:21:08.675Z,10.87
2019-04-20T23:22:54.836Z,10.88
2019-04-20T23:24:51.399Z,10.88
2019-04-20T23:26:51.138Z,10.91
2019-04-20T23:29:02.711Z,10.91
2019-04-20T23:31:18.727Z,10.76
2019-04-20T23:32:52.010Z,10.73
2019-04-20T23:35:18.261Z,10.58
2019-04-20T23:36:52.657Z,10.57
2019-04-20T23:39:03.527Z,10.58
2019-04-20T23:40:50.331Z,10.58
2019-04-20T23:42:52.024Z,10.57
2019-04-20T23:45:01.712Z,10.58
2019-04-20T23:47:15.488Z,10.58
2019-04-20T23:48:51.795Z,10.50
2019-04-20T23:53:32.057Z,10.40
2019-04-20T23:55:11.830Z,10.27
2019-04-20T23:56:50.399Z,10.10
2019-04-20T23:58:59.910Z,10.02
